sensor_id;sensor_type;location;lat;lon;timestamp;temperature;humidity
19090;DHT22;9677;50.656;13.064;2023-04-01T00:01:18;12.80;58.60
19090;DHT22;9677;50.656;13.064;2023-04-01T00:03:46;13.60;59.50
19090;DHT22;9677;50.656;13.064;2023-04-01T00:06:17;12.80;58.40
19090;DHT22;9677;50.656;13.064;2023-04-01T00:08:46;12.80;58.70
19090;DHT22;9677;50.656;13.064;2023-04-01T00:11:15;12.80;58.40
19090;DHT22;9677;50.656;13.064;2023-04-01T00:13:46;12.80;58.60
19090;DHT22;9677;50.656;13.064;2023-04-01T00:16:16;12.80;58.60
19090;DHT22;9677;50.656;13.064;2023-04-01T00:18:48;12.80;58.60
19090;DHT22;9677;50.656;13.064;2023-04-01T00:21:18;12.80;58.60
19090;DHT22;9677;50.656;13.064;2023-04-01T00:23:48;12.80;58.60
19090;DHT22;9677;50.656;13.064;2023-04-01T00:26:18;12.80;58.60
19090;DHT22;9677;50.656;13.064;2023-04-01T00:28:48;12.80;58.70
19090;DHT22;9677;50.656;13.064;2023-04-01T00:31:19;12.80;58.60
19090;DHT22;9677;50.656;13.064;2023-04-01T00:33:48;12.80;58.60
19090;DHT22;9677;50.656;13.064;2023-04-01T00:36:19;12.80;58.50
19090;DHT22;9677;50.656;13.064;2023-04-01T00:38:50;12.80;58.60
19090;DHT22;9677;50.656;13.064;2023-04-01T00:41:20;12.80;58.60
19090;DHT22;9677;50.656;13.064;2023-04-01T00:43:50;13.50;58.90
19090;DHT22;9677;50.656;13.064;2023-04-01T00:46:20;13.00;58.60
19090;DHT22;9677;50.656;13.064;2023-04-01T00:48:50;13.20;58.80
19090;DHT22;9677;50.656;13.064;2023-04-01T00:51:22;13.40;58.90
19090;DHT22;9677;50.656;13.064;2023-04-01T00:53:54;13.90;59.10
19090;DHT22;9677;50.656;13.064;2023-04-01T00:56:26;13.30;58.70
19090;DHT22;9677;50.656;13.064;2023-04-01T00:59:01;14.00;59.00
19090;DHT22;9677;50.656;13.064;2023-04-01T01:01:33;12.90;58.60
19090;DHT22;9677;50.656;13.064;2023-04-01T01:04:03;12.90;58.50
19090;DHT22;9677;50.656;13.064;2023-04-01T01:06:39;13.60;58.70
19090;DHT22;9677;50.656;13.064;2023-04-01T01:09:25;12.90;58.60
19090;DHT22;9677;50.656;13.064;2023-04-01T01:12:05;13.60;58.90
19090;DHT22;9677;50.656;13.064;2023-04-01T01:14:48;14.00;59.00
19090;DHT22;9677;50.656;13.064;2023-04-01T01:17:32;12.90;58.50
19090;DHT22;9677;50.656;13.064;2023-04-01T01:23:29;12.70;58.40
19090;DHT22;9677;50.656;13.064;2023-04-01T01:29:40;12.90;58.50
19090;DHT22;9677;50.656;13.064;2023-04-01T01:32:30;12.90;58.40
19090;DHT22;9677;50.656;13.064;2023-04-01T01:35:20;12.90;58.40
19090;DHT22;9677;50.656;13.064;2023-04-01T01:37:53;12.90;58.40
19090;DHT22;9677;50.656;13.064;2023-04-01T01:40:24;13.20;58.60
19090;DHT22;9677;50.656;13.064;2023-04-01T01:42:57;12.90;58.30
19090;DHT22;9677;50.656;13.064;2023-04-01T01:45:29;12.80;58.30
19090;DHT22;9677;50.656;13.064;2023-04-01T01:48:00;13.60;58.70
19090;DHT22;9677;50.656;13.064;2023-04-01T01:50:32;12.90;58.40
19090;DHT22;9677;50.656;13.064;2023-04-01T01:53:04;12.80;58.40
19090;DHT22;9677;50.656;13.064;2023-04-01T01:55:34;12.80;58.40
19090;DHT22;9677;50.656;13.064;2023-04-01T01:58:07;12.80;58.40
19090;DHT22;9677;50.656;13.064;2023-04-01T02:00:40;13.50;58.80
19090;DHT22;9677;50.656;13.064;2023-04-01T02:03:10;12.80;58.40
19090;DHT22;9677;50.656;13.064;2023-04-01T02:05:44;13.00;58.60
19090;DHT22;9677;50.656;13.064;2023-04-01T02:08:15;13.30;58.60
19090;DHT22;9677;50.656;13.064;2023-04-01T02:10:57;12.80;58.40
19090;DHT22;9677;50.656;13.064;2023-04-01T02:13:36;13.50;58.80
19090;DHT22;9677;50.656;13.064;2023-04-01T02:16:12;12.70;58.40
19090;DHT22;9677;50.656;13.064;2023-04-01T02:18:44;12.80;58.50
19090;DHT22;9677;50.656;13.064;2023-04-01T02:21:15;13.50;58.80
19090;DHT22;9677;50.656;13.064;2023-04-01T02:23:45;12.70;58.50
19090;DHT22;9677;50.656;13.064;2023-04-01T02:26:15;12.70;58.40
19090;DHT22;9677;50.656;13.064;2023-04-01T02:28:46;12.80;58.50
19090;DHT22;9677;50.656;13.064;2023-04-01T02:31:17;12.70;58.50
19090;DHT22;9677;50.656;13.064;2023-04-01T02:33:47;12.70;58.50
19090;DHT22;9677;50.656;13.064;2023-04-01T02:36:17;13.60;58.90
19090;DHT22;9677;50.656;13.064;2023-04-01T02:38:46;12.70;58.40
19090;DHT22;9677;50.656;13.064;2023-04-01T02:41:15;12.70;58.50
19090;DHT22;9677;50.656;13.064;2023-04-01T02:43:44;13.20;58.60
19090;DHT22;9677;50.656;13.064;2023-04-01T02:46:12;13.60;58.80
19090;DHT22;9677;50.656;13.064;2023-04-01T02:48:41;12.60;58.40
19090;DHT22;9677;50.656;13.064;2023-04-01T02:51:09;13.40;58.80
19090;DHT22;9677;50.656;13.064;2023-04-01T02:53:39;12.70;58.50
19090;DHT22;9677;50.656;13.064;2023-04-01T02:56:07;12.70;58.40
19090;DHT22;9677;50.656;13.064;2023-04-01T02:58:36;12.70;58.40
19090;DHT22;9677;50.656;13.064;2023-04-01T03:01:04;12.70;58.40
19090;DHT22;9677;50.656;13.064;2023-04-01T03:03:33;13.00;58.40
19090;DHT22;9677;50.656;13.064;2023-04-01T03:06:05;13.60;58.70
19090;DHT22;9677;50.656;13.064;2023-04-01T03:08:34;12.70;58.40
19090;DHT22;9677;50.656;13.064;2023-04-01T03:11:04;12.80;58.30
19090;DHT22;9677;50.656;13.064;2023-04-01T03:13:35;12.70;58.30
19090;DHT22;9677;50.656;13.064;2023-04-01T03:16:04;13.30;58.50
19090;DHT22;9677;50.656;13.064;2023-04-01T03:18:34;12.70;58.30
19090;DHT22;9677;50.656;13.064;2023-04-01T03:21:14;12.70;58.10
19090;DHT22;9677;50.656;13.064;2023-04-01T03:23:43;12.80;58.40
19090;DHT22;9677;50.656;13.064;2023-04-01T03:26:14;13.70;58.50
19090;DHT22;9677;50.656;13.064;2023-04-01T03:28:43;12.70;58.20
19090;DHT22;9677;50.656;13.064;2023-04-01T03:31:12;12.70;58.10
19090;DHT22;9677;50.656;13.064;2023-04-01T03:33:49;12.70;58.10
19090;DHT22;9677;50.656;13.064;2023-04-01T03:36:17;13.60;58.50
19090;DHT22;9677;50.656;13.064;2023-04-01T03:38:46;12.70;58.10
19090;DHT22;9677;50.656;13.064;2023-04-01T03:41:23;12.70;58.20
19090;DHT22;9677;50.656;13.064;2023-04-01T03:43:53;12.70;58.10
19090;DHT22;9677;50.656;13.064;2023-04-01T03:46:21;12.60;58.10
19090;DHT22;9677;50.656;13.064;2023-04-01T03:48:50;12.60;58.10
19090;DHT22;9677;50.656;13.064;2023-04-01T03:51:19;12.60;58.00
19090;DHT22;9677;50.656;13.064;2023-04-01T03:53:48;13.80;58.60
19090;DHT22;9677;50.656;13.064;2023-04-01T03:56:17;13.40;58.50
19090;DHT22;9677;50.656;13.064;2023-04-01T03:58:46;12.60;58.20
19090;DHT22;9677;50.656;13.064;2023-04-01T04:01:17;12.60;58.20
19090;DHT22;9677;50.656;13.064;2023-04-01T04:03:50;12.60;58.20
19090;DHT22;9677;50.656;13.064;2023-04-01T04:06:21;12.60;58.30
19090;DHT22;9677;50.656;13.064;2023-04-01T04:08:50;12.80;58.30
19090;DHT22;9677;50.656;13.064;2023-04-01T04:11:19;12.60;58.20
19090;DHT22;9677;50.656;13.064;2023-04-01T04:13:52;12.60;58.30
19090;DHT22;9677;50.656;13.064;2023-04-01T04:16:23;12.50;58.20
19090;DHT22;9677;50.656;13.064;2023-04-01T04:18:58;12.60;58.20
19090;DHT22;9677;50.656;13.064;2023-04-01T04:21:27;12.60;58.10
19090;DHT22;9677;50.656;13.064;2023-04-01T04:23:58;12.70;58.00
19090;DHT22;9677;50.656;13.064;2023-04-01T04:26:34;12.90;58.40
19090;DHT22;9677;50.656;13.064;2023-04-01T04:29:04;13.40;58.40
19090;DHT22;9677;50.656;13.064;2023-04-01T04:31:34;12.40;57.90
19090;DHT22;9677;50.656;13.064;2023-04-01T04:34:02;13.80;58.50
19090;DHT22;9677;50.656;13.064;2023-04-01T04:36:35;13.60;58.60
19090;DHT22;9677;50.656;13.064;2023-04-01T04:39:03;13.80;58.70
19090;DHT22;9677;50.656;13.064;2023-04-01T04:41:33;12.50;58.20
19090;DHT22;9677;50.656;13.064;2023-04-01T04:44:07;12.50;58.30
19090;DHT22;9677;50.656;13.064;2023-04-01T04:46:36;12.50;58.30
19090;DHT22;9677;50.656;13.064;2023-04-01T04:49:14;13.30;58.50
19090;DHT22;9677;50.656;13.064;2023-04-01T04:51:43;12.50;58.30
19090;DHT22;9677;50.656;13.064;2023-04-01T04:54:13;12.50;58.30
19090;DHT22;9677;50.656;13.064;2023-04-01T04:56:53;12.70;58.50
19090;DHT22;9677;50.656;13.064;2023-04-01T04:59:24;13.60;59.00
19090;DHT22;9677;50.656;13.064;2023-04-01T05:02:02;12.80;58.50
19090;DHT22;9677;50.656;13.064;2023-04-01T05:04:34;13.00;58.60
19090;DHT22;9677;50.656;13.064;2023-04-01T05:07:07;12.40;58.40
19090;DHT22;9677;50.656;13.064;2023-04-01T05:09:35;13.60;58.90
19090;DHT22;9677;50.656;13.064;2023-04-01T05:12:05;12.80;58.90
19090;DHT22;9677;50.656;13.064;2023-04-01T05:14:58;12.40;58.30
19090;DHT22;9677;50.656;13.064;2023-04-01T05:17:27;13.00;58.60
19090;DHT22;9677;50.656;13.064;2023-04-01T05:19:57;12.40;58.20
19090;DHT22;9677;50.656;13.064;2023-04-01T05:25:52;12.40;58.60
19090;DHT22;9677;50.656;13.064;2023-04-01T05:28:21;12.40;58.40
19090;DHT22;9677;50.656;13.064;2023-04-01T05:30:51;12.40;58.50
19090;DHT22;9677;50.656;13.064;2023-04-01T05:33:25;12.40;58.50
19090;DHT22;9677;50.656;13.064;2023-04-01T05:35:54;13.00;58.80
19090;DHT22;9677;50.656;13.064;2023-04-01T05:38:23;13.40;58.90
19090;DHT22;9677;50.656;13.064;2023-04-01T05:40:58;12.40;58.20
19090;DHT22;9677;50.656;13.064;2023-04-01T05:43:28;12.40;58.70
19090;DHT22;9677;50.656;13.064;2023-04-01T05:46:05;12.40;58.60
19090;DHT22;9677;50.656;13.064;2023-04-01T05:48:38;12.60;58.80
19090;DHT22;9677;50.656;13.064;2023-04-01T05:51:12;13.00;58.90
19090;DHT22;9677;50.656;13.064;2023-04-01T05:53:41;12.50;58.70
19090;DHT22;9677;50.656;13.064;2023-04-01T05:56:10;12.40;58.60
19090;DHT22;9677;50.656;13.064;2023-04-01T05:58:47;12.40;58.60
19090;DHT22;9677;50.656;13.064;2023-04-01T06:01:20;12.40;58.60
19090;DHT22;9677;50.656;13.064;2023-04-01T06:03:48;12.40;58.60
19090;DHT22;9677;50.656;13.064;2023-04-01T06:06:23;12.40;58.60
19090;DHT22;9677;50.656;13.064;2023-04-01T06:08:57;12.40;58.70
19090;DHT22;9677;50.656;13.064;2023-04-01T06:11:33;12.40;58.70
19090;DHT22;9677;50.656;13.064;2023-04-01T06:14:11;12.50;58.80
19090;DHT22;9677;50.656;13.064;2023-04-01T06:17:13;12.40;58.70
19090;DHT22;9677;50.656;13.064;2023-04-01T06:19:52;12.50;58.70
19090;DHT22;9677;50.656;13.064;2023-04-01T06:22:45;12.50;58.70
19090;DHT22;9677;50.656;13.064;2023-04-01T06:28:41;12.50;58.80
19090;DHT22;9677;50.656;13.064;2023-04-01T06:31:37;12.50;58.90
19090;DHT22;9677;50.656;13.064;2023-04-01T06:34:46;12.50;58.80
19090;DHT22;9677;50.656;13.064;2023-04-01T06:37:40;12.50;58.70
19090;DHT22;9677;50.656;13.064;2023-04-01T06:40:47;12.50;58.70
19090;DHT22;9677;50.656;13.064;2023-04-01T06:43:35;12.80;58.90
19090;DHT22;9677;50.656;13.064;2023-04-01T06:46:34;12.60;58.80
19090;DHT22;9677;50.656;13.064;2023-04-01T06:49:36;12.60;58.80
19090;DHT22;9677;50.656;13.064;2023-04-01T06:52:41;12.50;58.70
19090;DHT22;9677;50.656;13.064;2023-04-01T06:55:37;12.60;58.80
19090;DHT22;9677;50.656;13.064;2023-04-01T06:58:21;14.00;59.40
19090;DHT22;9677;50.656;13.064;2023-04-01T07:00:54;12.60;58.70
19090;DHT22;9677;50.656;13.064;2023-04-01T07:03:31;12.60;58.60
19090;DHT22;9677;50.656;13.064;2023-04-01T07:06:09;12.60;58.50
19090;DHT22;9677;50.656;13.064;2023-04-01T07:09:11;13.70;59.00
19090;DHT22;9677;50.656;13.064;2023-04-01T07:12:15;13.90;59.10
19090;DHT22;9677;50.656;13.064;2023-04-01T07:15:14;13.80;59.20
19090;DHT22;9677;50.656;13.064;2023-04-01T07:17:48;12.70;58.60
19090;DHT22;9677;50.656;13.064;2023-04-01T07:20:25;12.70;59.20
19090;DHT22;9677;50.656;13.064;2023-04-01T07:22:59;12.80;58.60
19090;DHT22;9677;50.656;13.064;2023-04-01T07:25:49;12.70;58.80
19090;DHT22;9677;50.656;13.064;2023-04-01T07:28:40;12.70;58.90
19090;DHT22;9677;50.656;13.064;2023-04-01T07:31:32;12.80;58.80
19090;DHT22;9677;50.656;13.064;2023-04-01T07:34:12;12.80;58.90
19090;DHT22;9677;50.656;13.064;2023-04-01T07:36:49;12.80;58.80
19090;DHT22;9677;50.656;13.064;2023-04-01T07:39:30;12.80;58.70
19090;DHT22;9677;50.656;13.064;2023-04-01T07:42:24;13.80;59.20
19090;DHT22;9677;50.656;13.064;2023-04-01T07:45:05;12.80;58.70
19090;DHT22;9677;50.656;13.064;2023-04-01T07:47:50;12.90;58.70
19090;DHT22;9677;50.656;13.064;2023-04-01T07:50:28;12.90;58.80
19090;DHT22;9677;50.656;13.064;2023-04-01T07:53:05;12.90;58.70
19090;DHT22;9677;50.656;13.064;2023-04-01T07:55:42;13.00;58.70
19090;DHT22;9677;50.656;13.064;2023-04-01T07:58:19;13.20;58.80
19090;DHT22;9677;50.656;13.064;2023-04-01T08:00:59;13.00;58.50
19090;DHT22;9677;50.656;13.064;2023-04-01T08:03:47;13.90;58.90
19090;DHT22;9677;50.656;13.064;2023-04-01T08:06:28;13.10;58.50
19090;DHT22;9677;50.656;13.064;2023-04-01T08:09:06;13.10;58.40
19090;DHT22;9677;50.656;13.064;2023-04-01T08:12:12;13.10;58.40
19090;DHT22;9677;50.656;13.064;2023-04-01T08:15:13;13.20;58.50
19090;DHT22;9677;50.656;13.064;2023-04-01T08:18:23;13.20;58.50
19090;DHT22;9677;50.656;13.064;2023-04-01T08:20:58;13.20;58.60
19090;DHT22;9677;50.656;13.064;2023-04-01T08:23:32;13.20;58.60
19090;DHT22;9677;50.656;13.064;2023-04-01T08:26:06;13.40;58.80
19090;DHT22;9677;50.656;13.064;2023-04-01T08:28:45;13.30;58.60
19090;DHT22;9677;50.656;13.064;2023-04-01T08:31:22;13.30;58.50
19090;DHT22;9677;50.656;13.064;2023-04-01T08:33:54;13.30;58.50
19090;DHT22;9677;50.656;13.064;2023-04-01T08:36:28;13.40;58.60
19090;DHT22;9677;50.656;13.064;2023-04-01T08:39:17;13.40;58.60
19090;DHT22;9677;50.656;13.064;2023-04-01T08:45:21;13.50;58.40
19090;DHT22;9677;50.656;13.064;2023-04-01T08:51:41;13.60;58.10
19090;DHT22;9677;50.656;13.064;2023-04-01T08:54:48;13.60;58.00
19090;DHT22;9677;50.656;13.064;2023-04-01T08:58:24;13.70;57.90
19090;DHT22;9677;50.656;13.064;2023-04-01T09:01:43;13.70;57.60
19090;DHT22;9677;50.656;13.064;2023-04-01T09:04:51;13.80;57.70
19090;DHT22;9677;50.656;13.064;2023-04-01T09:08:09;13.90;57.70
19090;DHT22;9677;50.656;13.064;2023-04-01T09:10:59;13.90;57.70
19090;DHT22;9677;50.656;13.064;2023-04-01T09:14:23;14.00;57.70
19090;DHT22;9677;50.656;13.064;2023-04-01T09:17:44;14.00;57.70
19090;DHT22;9677;50.656;13.064;2023-04-01T09:20:44;14.00;57.40
19090;DHT22;9677;50.656;13.064;2023-04-01T09:23:29;14.00;57.30
19090;DHT22;9677;50.656;13.064;2023-04-01T09:26:27;14.20;57.20
19090;DHT22;9677;50.656;13.064;2023-04-01T09:29:09;14.20;57.20
19090;DHT22;9677;50.656;13.064;2023-04-01T09:32:03;14.10;57.20
19090;DHT22;9677;50.656;13.064;2023-04-01T09:34:54;14.20;57.00
19090;DHT22;9677;50.656;13.064;2023-04-01T09:37:34;14.20;57.00
19090;DHT22;9677;50.656;13.064;2023-04-01T09:40:23;14.20;57.10
19090;DHT22;9677;50.656;13.064;2023-04-01T09:43:25;14.20;57.10
19090;DHT22;9677;50.656;13.064;2023-04-01T09:46:09;14.30;57.00
19090;DHT22;9677;50.656;13.064;2023-04-01T09:49:19;14.30;57.00
19090;DHT22;9677;50.656;13.064;2023-04-01T09:52:07;14.30;56.50
19090;DHT22;9677;50.656;13.064;2023-04-01T09:54:55;14.40;56.40
19090;DHT22;9677;50.656;13.064;2023-04-01T09:57:47;14.40;56.20
19090;DHT22;9677;50.656;13.064;2023-04-01T10:01:21;14.30;56.30
19090;DHT22;9677;50.656;13.064;2023-04-01T10:04:54;14.40;56.70
19090;DHT22;9677;50.656;13.064;2023-04-01T10:11:23;14.60;56.50
19090;DHT22;9677;50.656;13.064;2023-04-01T10:18:18;14.50;56.40
19090;DHT22;9677;50.656;13.064;2023-04-01T10:21:22;14.50;56.20
19090;DHT22;9677;50.656;13.064;2023-04-01T10:24:32;14.50;56.30
19090;DHT22;9677;50.656;13.064;2023-04-01T10:27:56;14.50;56.30
19090;DHT22;9677;50.656;13.064;2023-04-01T10:31:28;14.50;56.30
19090;DHT22;9677;50.656;13.064;2023-04-01T10:34:39;14.60;56.40
19090;DHT22;9677;50.656;13.064;2023-04-01T10:37:45;14.60;56.20
19090;DHT22;9677;50.656;13.064;2023-04-01T10:40:37;14.70;56.30
19090;DHT22;9677;50.656;13.064;2023-04-01T10:44:06;14.80;56.30
19090;DHT22;9677;50.656;13.064;2023-04-01T10:47:14;14.80;55.90
19090;DHT22;9677;50.656;13.064;2023-04-01T10:50:04;14.80;55.80
19090;DHT22;9677;50.656;13.064;2023-04-01T10:53:21;14.80;55.60
19090;DHT22;9677;50.656;13.064;2023-04-01T10:56:39;14.80;55.60
19090;DHT22;9677;50.656;13.064;2023-04-01T11:00:06;14.90;56.10
19090;DHT22;9677;50.656;13.064;2023-04-01T11:07:14;15.00;56.00
19090;DHT22;9677;50.656;13.064;2023-04-01T11:13:59;15.00;55.00
19090;DHT22;9677;50.656;13.064;2023-04-01T11:26:33;15.00;55.30
19090;DHT22;9677;50.656;13.064;2023-04-01T11:32:50;15.00;54.80
19090;DHT22;9677;50.656;13.064;2023-04-01T11:35:48;15.00;55.30
19090;DHT22;9677;50.656;13.064;2023-04-01T11:41:50;15.10;55.60
19090;DHT22;9677;50.656;13.064;2023-04-01T11:45:12;15.10;55.40
19090;DHT22;9677;50.656;13.064;2023-04-01T11:48:03;15.20;55.00
19090;DHT22;9677;50.656;13.064;2023-04-01T11:50:53;15.20;54.90
19090;DHT22;9677;50.656;13.064;2023-04-01T11:53:38;15.20;55.00
19090;DHT22;9677;50.656;13.064;2023-04-01T11:56:34;15.20;55.00
19090;DHT22;9677;50.656;13.064;2023-04-01T11:59:29;15.20;55.00
19090;DHT22;9677;50.656;13.064;2023-04-01T12:02:28;15.20;55.10
19090;DHT22;9677;50.656;13.064;2023-04-01T12:05:40;15.20;55.40
19090;DHT22;9677;50.656;13.064;2023-04-01T12:08:31;15.20;55.60
19090;DHT22;9677;50.656;13.064;2023-04-01T12:14:24;15.30;55.90
19090;DHT22;9677;50.656;13.064;2023-04-01T12:17:07;15.40;56.20
19090;DHT22;9677;50.656;13.064;2023-04-01T12:19:46;15.30;56.30
19090;DHT22;9677;50.656;13.064;2023-04-01T12:22:41;15.50;56.30
19090;DHT22;9677;50.656;13.064;2023-04-01T12:25:26;15.60;56.10
19090;DHT22;9677;50.656;13.064;2023-04-01T12:28:10;15.70;55.80
19090;DHT22;9677;50.656;13.064;2023-04-01T12:30:52;15.80;55.70
19090;DHT22;9677;50.656;13.064;2023-04-01T12:33:45;15.90;55.40
19090;DHT22;9677;50.656;13.064;2023-04-01T12:36:30;15.90;55.00
19090;DHT22;9677;50.656;13.064;2023-04-01T12:39:22;16.00;55.00
19090;DHT22;9677;50.656;13.064;2023-04-01T12:42:07;16.10;54.80
19090;DHT22;9677;50.656;13.064;2023-04-01T12:44:52;16.10;54.90
19090;DHT22;9677;50.656;13.064;2023-04-01T12:47:43;16.20;54.80
19090;DHT22;9677;50.656;13.064;2023-04-01T12:50:34;16.20;54.80
19090;DHT22;9677;50.656;13.064;2023-04-01T12:53:33;16.30;54.50
19090;DHT22;9677;50.656;13.064;2023-04-01T12:56:12;16.40;53.90
19090;DHT22;9677;50.656;13.064;2023-04-01T13:02:16;16.40;54.20
19090;DHT22;9677;50.656;13.064;2023-04-01T13:05:14;16.40;53.80
19090;DHT22;9677;50.656;13.064;2023-04-01T13:07:54;16.50;53.50
19090;DHT22;9677;50.656;13.064;2023-04-01T13:10:53;16.50;53.70
19090;DHT22;9677;50.656;13.064;2023-04-01T13:17:02;16.50;53.50
19090;DHT22;9677;50.656;13.064;2023-04-01T13:19:43;16.50;53.70
19090;DHT22;9677;50.656;13.064;2023-04-01T13:22:41;16.40;53.60
19090;DHT22;9677;50.656;13.064;2023-04-01T13:25:24;16.30;53.50
19090;DHT22;9677;50.656;13.064;2023-04-01T13:28:06;16.70;53.80
19090;DHT22;9677;50.656;13.064;2023-04-01T13:30:47;16.30;53.60
19090;DHT22;9677;50.656;13.064;2023-04-01T13:33:26;16.70;53.90
19090;DHT22;9677;50.656;13.064;2023-04-01T13:36:08;16.70;53.80
19090;DHT22;9677;50.656;13.064;2023-04-01T13:38:52;16.20;53.20
19090;DHT22;9677;50.656;13.064;2023-04-01T13:42:05;16.90;53.50
19090;DHT22;9677;50.656;13.064;2023-04-01T13:45:15;16.80;53.40
19090;DHT22;9677;50.656;13.064;2023-04-01T13:48:05;16.10;53.30
19090;DHT22;9677;50.656;13.064;2023-04-01T13:51:05;16.10;53.10
19090;DHT22;9677;50.656;13.064;2023-04-01T13:57:00;16.10;53.30
19090;DHT22;9677;50.656;13.064;2023-04-01T13:59:56;16.10;53.70
19090;DHT22;9677;50.656;13.064;2023-04-01T14:03:19;16.10;53.70
19090;DHT22;9677;50.656;13.064;2023-04-01T14:06:25;16.00;53.70
19090;DHT22;9677;50.656;13.064;2023-04-01T14:09:15;16.10;53.90
19090;DHT22;9677;50.656;13.064;2023-04-01T14:12:02;16.00;54.30
19090;DHT22;9677;50.656;13.064;2023-04-01T14:14:46;16.00;54.00
19090;DHT22;9677;50.656;13.064;2023-04-01T14:17:40;16.20;54.10
19090;DHT22;9677;50.656;13.064;2023-04-01T14:20:33;16.00;54.20
19090;DHT22;9677;50.656;13.064;2023-04-01T14:26:21;16.20;54.50
19090;DHT22;9677;50.656;13.064;2023-04-01T14:29:02;16.00;54.70
19090;DHT22;9677;50.656;13.064;2023-04-01T14:31:48;16.10;54.80
19090;DHT22;9677;50.656;13.064;2023-04-01T14:34:37;16.10;54.70
19090;DHT22;9677;50.656;13.064;2023-04-01T14:37:54;16.10;54.80
19090;DHT22;9677;50.656;13.064;2023-04-01T14:40:45;16.20;55.00
19090;DHT22;9677;50.656;13.064;2023-04-01T14:43:32;16.20;55.50
19090;DHT22;9677;50.656;13.064;2023-04-01T14:46:23;16.30;54.90
19090;DHT22;9677;50.656;13.064;2023-04-01T14:49:01;16.50;55.00
19090;DHT22;9677;50.656;13.064;2023-04-01T14:51:33;16.40;54.70
19090;DHT22;9677;50.656;13.064;2023-04-01T14:54:11;17.00;54.80
19090;DHT22;9677;50.656;13.064;2023-04-01T14:56:50;16.70;54.30
19090;DHT22;9677;50.656;13.064;2023-04-01T14:59:27;16.40;53.90
19090;DHT22;9677;50.656;13.064;2023-04-01T15:02:01;16.40;54.00
19090;DHT22;9677;50.656;13.064;2023-04-01T15:04:49;16.40;54.00
19090;DHT22;9677;50.656;13.064;2023-04-01T15:14:18;16.20;53.70
19090;DHT22;9677;50.656;13.064;2023-04-01T15:17:05;16.30;53.80
19090;DHT22;9677;50.656;13.064;2023-04-01T15:20:21;16.20;53.90
19090;DHT22;9677;50.656;13.064;2023-04-01T15:23:16;16.20;54.00
19090;DHT22;9677;50.656;13.064;2023-04-01T15:26:13;16.70;54.20
19090;DHT22;9677;50.656;13.064;2023-04-01T15:29:11;16.20;53.90
19090;DHT22;9677;50.656;13.064;2023-04-01T15:32:03;16.50;53.90
19090;DHT22;9677;50.656;13.064;2023-04-01T15:34:40;16.10;53.80
19090;DHT22;9677;50.656;13.064;2023-04-01T15:37:19;16.50;54.00
19090;DHT22;9677;50.656;13.064;2023-04-01T15:40:02;16.80;54.80
19090;DHT22;9677;50.656;13.064;2023-04-01T15:49:31;16.10;54.00
19090;DHT22;9677;50.656;13.064;2023-04-01T15:52:17;16.80;54.50
19090;DHT22;9677;50.656;13.064;2023-04-01T15:55:09;16.00;54.00
19090;DHT22;9677;50.656;13.064;2023-04-01T15:58:00;16.20;54.20
19090;DHT22;9677;50.656;13.064;2023-04-01T16:00:43;16.50;54.30
19090;DHT22;9677;50.656;13.064;2023-04-01T16:03:33;16.20;54.20
19090;DHT22;9677;50.656;13.064;2023-04-01T16:09:02;16.10;54.20
19090;DHT22;9677;50.656;13.064;2023-04-01T16:12:15;16.10;54.20
19090;DHT22;9677;50.656;13.064;2023-04-01T16:15:17;16.50;54.30
19090;DHT22;9677;50.656;13.064;2023-04-01T16:21:14;16.00;54.20
19090;DHT22;9677;50.656;13.064;2023-04-01T16:24:00;15.90;54.00
19090;DHT22;9677;50.656;13.064;2023-04-01T16:26:37;16.10;54.20
19090;DHT22;9677;50.656;13.064;2023-04-01T16:29:12;15.90;54.00
19090;DHT22;9677;50.656;13.064;2023-04-01T16:31:51;16.00;54.10
19090;DHT22;9677;50.656;13.064;2023-04-01T16:37:42;15.90;54.50
19090;DHT22;9677;50.656;13.064;2023-04-01T16:40:25;15.90;54.50
19090;DHT22;9677;50.656;13.064;2023-04-01T16:43:16;15.70;54.60
19090;DHT22;9677;50.656;13.064;2023-04-01T16:46:22;16.40;54.80
19090;DHT22;9677;50.656;13.064;2023-04-01T16:49:27;16.20;54.50
19090;DHT22;9677;50.656;13.064;2023-04-01T16:55:15;15.70;54.10
19090;DHT22;9677;50.656;13.064;2023-04-01T16:57:52;15.70;54.00
19090;DHT22;9677;50.656;13.064;2023-04-01T17:24:05;15.20;54.60
19090;DHT22;9677;50.656;13.064;2023-04-01T17:29:46;15.20;54.80
19090;DHT22;9677;50.656;13.064;2023-04-01T17:32:54;15.30;54.80
19090;DHT22;9677;50.656;13.064;2023-04-01T17:35:42;15.20;54.80
19090;DHT22;9677;50.656;13.064;2023-04-01T17:38:27;15.10;54.70
19090;DHT22;9677;50.656;13.064;2023-04-01T17:41:19;14.90;54.70
19090;DHT22;9677;50.656;13.064;2023-04-01T17:44:01;15.50;54.90
19090;DHT22;9677;50.656;13.064;2023-04-01T17:46:53;15.20;54.80
19090;DHT22;9677;50.656;13.064;2023-04-01T17:49:33;15.20;54.80
19090;DHT22;9677;50.656;13.064;2023-04-01T17:52:10;15.10;54.70
19090;DHT22;9677;50.656;13.064;2023-04-01T17:54:52;15.10;54.80
19090;DHT22;9677;50.656;13.064;2023-04-01T17:57:39;15.10;54.60
19090;DHT22;9677;50.656;13.064;2023-04-01T18:00:23;16.00;55.30
19090;DHT22;9677;50.656;13.064;2023-04-01T18:03:09;15.00;54.90
19090;DHT22;9677;50.656;13.064;2023-04-01T18:05:52;15.80;55.30
19090;DHT22;9677;50.656;13.064;2023-04-01T18:08:42;15.40;55.10
19090;DHT22;9677;50.656;13.064;2023-04-01T18:11:37;14.90;54.80
19090;DHT22;9677;50.656;13.064;2023-04-01T18:14:50;14.80;54.80
19090;DHT22;9677;50.656;13.064;2023-04-01T18:17:43;15.00;54.90
19090;DHT22;9677;50.656;13.064;2023-04-01T18:20:25;15.90;55.40
19090;DHT22;9677;50.656;13.064;2023-04-01T18:23:03;14.90;54.90
19090;DHT22;9677;50.656;13.064;2023-04-01T18:25:38;14.90;55.00
19090;DHT22;9677;50.656;13.064;2023-04-01T18:34:55;14.80;55.10
19090;DHT22;9677;50.656;13.064;2023-04-01T18:37:30;14.80;55.20
19090;DHT22;9677;50.656;13.064;2023-04-01T18:40:11;15.50;55.50
19090;DHT22;9677;50.656;13.064;2023-04-01T18:42:53;14.80;55.30
19090;DHT22;9677;50.656;13.064;2023-04-01T18:45:33;14.70;55.30
19090;DHT22;9677;50.656;13.064;2023-04-01T18:51:44;14.70;55.40
19090;DHT22;9677;50.656;13.064;2023-04-01T18:54:24;14.60;55.30
19090;DHT22;9677;50.656;13.064;2023-04-01T18:57:39;14.60;55.40
19090;DHT22;9677;50.656;13.064;2023-04-01T19:03:32;14.60;55.50
19090;DHT22;9677;50.656;13.064;2023-04-01T19:06:35;15.80;56.00
19090;DHT22;9677;50.656;13.064;2023-04-01T19:09:25;14.50;55.40
19090;DHT22;9677;50.656;13.064;2023-04-01T19:12:21;14.50;55.60
19090;DHT22;9677;50.656;13.064;2023-04-01T19:15:02;14.40;55.60
19090;DHT22;9677;50.656;13.064;2023-04-01T19:17:54;14.60;55.70
19090;DHT22;9677;50.656;13.064;2023-04-01T19:20:47;14.40;55.70
19090;DHT22;9677;50.656;13.064;2023-04-01T19:26:42;14.40;55.90
19090;DHT22;9677;50.656;13.064;2023-04-01T19:29:30;14.30;55.80
19090;DHT22;9677;50.656;13.064;2023-04-01T19:32:14;14.40;56.00